Time;durP1;ratioP1;P1;durP2;ratioP2;P2;SDS_P1;SDS_P2;PMS_P1;PMS_P2;Temp;Humidity;BMP_temperature;BMP_pressure;BME280_temperature;BME280_humidity;BME280_pressure;Samples;Min_cycle;Max_cycle;Signal;HPM_P1;HPM_P2
2022/08/12 00:43:52;;;;;;;3.93;3.50;;;18.60;18.20;;;18.67;56.72;101652.25;5008841;28;20552;-76
2022/08/12 00:46:44;;;;;;;11.27;3.57;;;18.60;18.80;;;18.60;57.16;101653.41;5008187;28;20436;-78
2022/08/12 00:49:14;;;;;;;5.87;3.13;;;18.50;19.40;;;18.60;56.97;101654.25;5007069;28;20928;-76
2022/08/12 00:54:34;;;;;;;3.93;3.33;;;18.50;20.70;;;18.49;57.43;101663.25;5012461;28;20948;-77
2022/08/12 00:57:07;;;;;;;4.80;3.03;;;18.40;21.20;;;18.48;57.61;101653.38;5010548;28;20955;-77
2022/08/12 00:59:43;;;;;;;3.30;2.50;;;18.40;21.80;;;18.42;57.56;101654.31;5010061;28;20447;-77
2022/08/12 01:02:24;;;;;;;3.43;2.77;;;18.40;22.40;;;18.32;58.10;101650.47;5009254;28;20482;-77
2022/08/12 01:13:26;;;;;;;4.50;3.00;;;18.10;25.80;;;18.12;58.98;101648.88;5008059;28;20432;-78
2022/08/12 01:15:59;;;;;;;3.60;3.13;;;18.10;27.20;;;18.12;58.98;101651.63;5011677;28;20898;-77
2022/08/12 01:18:34;;;;;;;5.50;3.37;;;18.10;27.70;;;18.18;58.91;101658.91;5009905;28;20801;-77
2022/08/12 01:21:15;;;;;;;4.60;3.30;;;18.00;28.50;;;18.03;59.35;101655.78;5010587;28;20412;-77
2022/08/12 01:24:08;;;;;;;3.83;2.83;;;18.00;29.10;;;18.02;59.38;101662.31;4993256;28;20472;-77
2022/08/12 01:27:02;;;;;;;5.03;3.70;;;17.90;30.10;;;18.00;59.46;101649.94;5009545;28;20820;-77
2022/08/12 01:29:44;;;;;;;6.33;3.30;;;17.90;31.40;;;17.99;59.53;101648.25;5009840;28;20411;-78
2022/08/12 01:32:18;;;;;;;5.80;3.40;;;17.90;32.30;;;17.79;59.94;101651.28;5007862;28;20413;-77
2022/08/12 01:35:04;;;;;;;4.70;3.43;;;17.80;33.80;;;17.70;60.61;101655.41;5005451;28;20519;-78
2022/08/12 01:37:37;;;;;;;4.33;3.07;;;17.70;36.10;;;17.55;60.97;101658.50;5009123;28;20441;-78
2022/08/12 01:40:10;;;;;;;6.90;3.27;;;17.60;38.50;;;17.66;60.76;101649.56;5010551;28;20528;-77
2022/08/12 01:43:07;;;;;;;3.87;3.47;;;17.60;40.40;;;17.90;60.19;101652.38;5010817;28;20464;-77
2022/08/12 01:45:47;;;;;;;4.90;3.53;;;17.70;41.10;;;17.77;60.17;101656.97;5012399;28;20415;-78
2022/08/12 01:48:35;;;;;;;4.90;3.23;;;17.70;40.30;;;17.71;60.53;101640.66;5014228;28;20436;-79
2022/08/12 01:51:20;;;;;;;5.10;4.23;;;17.70;41.10;;;17.65;61.03;101642.41;5012449;28;20969;-77
2022/08/12 01:54:13;;;;;;;4.47;3.40;;;17.60;43.10;;;17.74;60.48;101653.88;4998524;28;20443;-77
2022/08/12 01:56:50;;;;;;;4.33;3.37;;;17.60;43.10;;;17.75;60.42;101656.38;5012560;28;20448;-77
2022/08/12 01:59:49;;;;;;;5.90;3.73;;;17.60;43.70;;;17.80;60.36;101656.53;4993955;28;20826;-77
2022/08/12 02:02:26;;;;;;;10.30;4.80;;;17.60;44.20;;;17.74;60.41;101653.88;5003723;28;20434;-78
2022/08/12 02:11:27;;;;;;;5.47;4.00;;;17.50;46.80;;;17.62;60.87;101653.00;5010087;28;20531;-77
2022/08/12 02:14:18;;;;;;;6.90;3.50;;;17.50;47.70;;;17.62;60.94;101650.25;5006916;28;20465;-77
2022/08/12 02:17:20;;;;;;;7.90;3.80;;;17.50;48.80;;;17.63;60.89;101641.78;5005401;28;20415;-76
2022/08/12 02:20:21;;;;;;;6.50;3.10;;;17.50;49.00;;;17.50;61.14;101641.94;5001269;28;20412;-77
2022/08/12 02:22:53;;;;;;;5.10;2.93;;;17.50;49.80;;;17.46;61.41;101648.94;5007974;28;20493;-78
2022/08/12 02:25:32;;;;;;;4.67;3.00;;;17.40;51.10;;;17.49;61.17;101653.94;5010195;28;20902;-78
2022/08/12 02:28:02;;;;;;;4.90;3.27;;;17.40;51.60;;;17.46;61.18;101646.19;5008749;28;20415;-77
2022/08/12 02:30:39;;;;;;;5.40;3.93;;;17.30;52.20;;;17.51;61.31;101642.78;5008587;28;20931;-77
2022/08/12 02:33:12;;;;;;;5.07;3.53;;;17.30;53.30;;;17.47;61.35;101642.41;5008373;28;20449;-77
2022/08/12 02:35:41;;;;;;;10.63;3.63;;;17.40;53.30;;;17.28;61.85;101643.47;5004765;28;20407;-77
2022/08/12 02:38:12;;;;;;;6.43;3.40;;;17.30;54.20;;;17.25;62.15;101643.91;5010133;28;20425;-77
2022/08/12 02:40:44;;;;;;;4.13;3.60;;;17.20;56.70;;;17.30;61.89;101642.16;5010212;28;20469;-78
2022/08/12 02:43:22;;;;;;;5.17;3.93;;;17.20;57.40;;;17.24;62.35;101643.06;5009851;28;20486;-79
2022/08/12 02:45:57;;;;;;;6.00;4.23;;;17.20;58.70;;;17.21;62.18;101645.44;5009815;28;20823;-78
2022/08/12 02:48:39;;;;;;;7.23;3.30;;;17.20;58.70;;;17.22;61.72;101645.22;5006203;28;20489;-76
2022/08/12 02:51:13;;;;;;;4.23;3.37;;;17.20;57.50;;;17.23;62.05;101637.84;5011632;28;20858;-77
2022/08/12 02:53:44;;;;;;;6.00;3.70;;;17.20;58.10;;;17.28;61.84;101640.75;5010939;28;20427;-79
2022/08/12 02:56:36;;;;;;;5.87;2.90;;;17.20;58.40;;;17.26;61.65;101642.84;5005782;28;20704;-76
2022/08/12 02:59:09;;;;;;;4.20;3.30;;;17.20;56.50;;;17.17;61.91;101644.22;5000275;28;20427;-79
2022/08/12 03:01:48;;;;;;;6.70;4.20;;;17.10;57.50;;;17.27;61.55;101633.59;5012067;28;20440;-79
2022/08/12 03:04:26;;;;;;;7.20;4.47;;;17.10;57.90;;;17.24;61.69;101640.34;5012347;28;20463;-77
2022/08/12 03:07:09;;;;;;;6.90;3.87;;;17.10;58.10;;;17.23;61.68;101640.59;5006539;28;20824;-79
2022/08/12 03:09:49;;;;;;;9.67;4.37;;;17.10;57.40;;;17.14;61.86;101644.66;5011813;28;20451;-77
2022/08/12 03:12:37;;;;;;;3.83;3.50;;;17.10;58.00;;;17.32;61.37;101648.25;5008030;28;20452;-79
2022/08/12 03:15:19;;;;;;;4.97;4.00;;;17.20;57.40;;;17.31;61.31;101640.28;5008720;28;20479;-77
2022/08/12 03:17:56;;;;;;;9.80;3.97;;;17.20;57.10;;;17.29;61.34;101658.81;5008309;28;20430;-76
2022/08/12 03:20:46;;;;;;;4.47;4.07;;;17.20;57.20;;;17.26;61.34;101649.16;5010294;28;20427;-77
2022/08/12 03:23:17;;;;;;;4.97;3.93;;;17.20;57.00;;;17.20;61.92;101649.22;4995216;28;20451;-79
2022/08/12 03:25:59;;;;;;;5.93;3.60;;;17.10;59.20;;;17.13;61.76;101656.69;5010231;28;20463;-80
2022/08/12 03:28:52;;;;;;;3.80;3.43;;;17.10;58.30;;;17.11;61.76;101658.81;5015141;28;20446;-80
2022/08/12 03:31:28;;;;;;;4.30;3.50;;;17.00;57.70;;;17.25;61.19;101652.97;5019498;28;20478;-80
2022/08/12 03:34:01;;;;;;;4.97;4.33;;;17.10;57.20;;;17.10;61.61;101649.75;5021341;28;20443;-79
2022/08/12 03:36:35;;;;;;;4.97;3.77;;;17.10;57.50;;;17.06;61.74;101648.53;5015595;28;20428;-78
2022/08/12 03:39:20;;;;;;;8.07;4.73;;;17.00;57.30;;;17.04;61.63;101649.84;5013234;28;20409;-79
2022/08/12 03:42:27;;;;;;;4.77;3.90;;;16.90;57.30;;;17.03;61.64;101649.00;5032503;28;20445;-79
2022/08/12 04:02:06;;;;;;;4.50;4.10;;;17.00;56.90;;;17.21;61.04;101659.13;5013336;28;20659;-80
2022/08/12 04:04:36;;;;;;;8.03;4.27;;;17.00;56.20;;;17.31;60.95;101659.44;5014595;28;20478;-80
2022/08/12 04:07:09;;;;;;;7.37;4.43;;;17.10;56.70;;;17.39;60.57;101659.94;5017237;28;20519;-78
2022/08/12 04:09:43;;;;;;;9.50;4.20;;;17.20;55.60;;;17.38;60.83;101658.28;5016489;28;20441;-79
2022/08/12 04:15:12;;;;;;;5.47;4.70;;;17.30;54.70;;;19.08;56.16;101664.16;4995660;28;20420;-78
2022/08/12 04:17:43;;;;;;;7.60;4.43;;;17.90;48.40;;;19.69;54.04;101660.84;5007818;28;20438;-79
2022/08/12 04:20:32;;;;;;;7.20;4.43;;;18.40;42.20;;;20.21;52.26;101658.81;5015962;28;20433;-78
2022/08/12 04:23:04;;;;;;;6.63;3.93;;;18.90;35.90;;;20.67;51.13;101656.88;5015191;28;20457;-78
2022/08/12 04:25:38;;;;;;;8.80;5.10;;;19.20;31.20;;;21.07;50.02;101670.41;5014372;28;20775;-78
2022/08/12 04:28:10;;;;;;;16.97;4.90;;;19.60;27.70;;;21.13;49.67;101673.03;5014271;28;20438;-78
2022/08/12 04:30:42;;;;;;;9.30;5.77;;;19.90;25.50;;;21.43;48.99;101671.78;5023995;28;20426;-80
2022/08/12 04:33:11;;;;;;;6.80;4.60;;;20.20;23.50;;;21.73;48.00;101671.34;5007152;28;20624;-74
2022/08/12 04:35:40;;;;;;;5.00;4.27;;;20.40;21.70;;;22.18;46.66;101669.09;5011682;28;20446;-74
2022/08/12 04:38:10;;;;;;;5.07;4.27;;;20.70;19.90;;;22.87;45.31;101664.47;5011023;28;20408;-73
2022/08/12 04:40:41;;;;;;;7.13;4.90;;;21.00;18.10;;;23.50;43.54;101668.19;5011240;28;20411;-73
2022/08/12 04:43:10;;;;;;;9.23;4.53;;;21.50;15.90;;;24.03;42.64;101668.91;5007324;28;20806;-76
2022/08/12 04:45:59;;;;;;;5.10;4.30;;;21.80;14.10;;;24.24;41.96;101665.13;5010847;28;20411;-74
2022/08/12 04:48:28;;;;;;;8.93;5.60;;;22.30;11.70;;;24.48;41.44;101665.41;5023823;22;20517;-73
2022/08/12 04:50:58;;;;;;;6.07;4.50;;;22.60;10.40;;;24.94;40.42;101669.00;5012105;28;20845;-72
2022/08/12 04:53:29;;;;;;;4.77;4.30;;;22.80;9.10;;;25.38;39.79;101663.63;5014014;28;20471;-74
2022/08/12 04:56:00;;;;;;;5.57;4.40;;;22.70;8.00;;;25.65;38.63;101663.28;5016215;28;20459;-72
2022/08/12 04:58:29;;;;;;;17.80;4.97;;;23.20;7.00;;;25.87;38.61;101667.31;5017803;28;20404;-73
2022/08/12 05:00:58;;;;;;;8.63;5.00;;;23.40;5.90;;;26.23;37.50;101670.72;5017114;28;20501;-72
2022/08/12 05:03:27;;;;;;;7.60;4.50;;;23.80;5.00;;;26.39;37.53;101666.72;5017072;28;20416;-73
2022/08/12 05:06:13;;;;;;;8.13;4.50;;;23.80;4.10;;;26.53;36.96;101674.41;5015038;28;20441;-72
2022/08/12 05:08:56;;;;;;;14.37;4.90;;;24.20;2.90;;;26.89;36.73;101670.19;5011780;28;20465;-72
2022/08/12 05:11:27;;;;;;;5.40;4.93;;;24.20;2.40;;;27.41;35.67;101662.94;5013994;28;20515;-72
2022/08/12 05:14:00;;;;;;;5.40;4.53;;;24.40;2.00;;;27.37;35.77;101673.84;5013754;28;20439;-73
2022/08/12 05:16:29;;;;;;;8.73;4.30;;;24.10;1.90;;;27.80;35.12;101666.38;5015310;28;20423;-72
2022/08/12 05:19:04;;;;;;;6.10;4.50;;;24.60;1.00;;;27.83;35.03;101667.75;5012081;28;20983;-73
2022/08/12 05:21:41;;;;;;;6.00;4.50;;;24.50;1.00;;;28.15;34.36;101664.25;5012404;28;20902;-73
2022/08/12 05:24:09;;;;;;;5.07;4.50;;;24.90;1.00;;;28.22;34.01;101670.28;5014315;28;20444;-73
2022/08/12 05:26:40;;;;;;;8.63;5.40;;;24.90;1.00;;;26.45;36.67;101670.28;5012439;28;20412;-72
2022/08/12 05:29:11;;;;;;;7.70;4.63;;;24.70;1.00;;;24.38;40.32;101671.75;5012692;28;20478;-72
2022/08/12 05:32:01;;;;;;;6.30;4.53;;;23.90;1.00;;;22.76;43.48;101675.69;5007929;28;20480;-73
2022/08/12 05:34:31;;;;;;;8.70;4.27;;;22.90;2.30;;;22.07;45.10;101668.16;5011446;28;20492;-73
2022/08/12 05:37:00;;;;;;;9.57;4.50;;;22.20;4.10;;;21.69;46.29;101682.84;5014361;28;20449;-71
2022/08/12 05:39:28;;;;;;;4.90;4.40;;;21.70;5.20;;;21.53;46.40;101674.66;5015180;28;20452;-73
2022/08/12 05:41:59;;;;;;;5.40;4.67;;;21.50;6.00;;;21.39;47.20;101681.66;5009281;28;20457;-73
2022/08/12 05:44:27;;;;;;;6.70;5.17;;;21.30;6.70;;;21.44;47.27;101678.97;5009752;28;20475;-72
2022/08/12 05:46:57;;;;;;;10.20;4.40;;;21.10;7.50;;;21.47;46.85;101675.69;5014283;28;20440;-71
2022/08/12 05:49:28;;;;;;;7.87;4.60;;;21.20;7.50;;;21.37;47.29;101679.13;5012258;28;20457;-73
2022/08/12 05:51:57;;;;;;;4.73;3.87;;;21.20;7.80;;;21.45;47.34;101681.44;5000264;28;20798;-73
2022/08/12 05:54:26;;;;;;;5.50;3.57;;;21.20;7.90;;;21.50;47.07;101694.44;5012169;28;20411;-73
2022/08/12 05:57:16;;;;;;;14.53;4.20;;;21.20;7.50;;;21.67;46.81;101687.78;5012124;28;20438;-73
2022/08/12 05:59:46;;;;;;;5.80;4.17;;;21.30;7.40;;;21.73;46.65;101687.84;5011883;28;20415;-72
2022/08/12 06:02:15;;;;;;;5.30;4.40;;;21.40;7.80;;;21.90;46.43;101688.59;5015844;28;20964;-74
2022/08/12 06:04:44;;;;;;;15.10;4.33;;;21.50;7.60;;;22.01;46.28;101691.25;5016601;28;20414;-73
2022/08/12 06:07:13;;;;;;;6.70;4.60;;;21.70;7.60;;;22.13;45.51;101690.25;5013569;28;20902;-73
2022/08/12 06:10:02;;;;;;;4.77;4.10;;;21.80;6.70;;;22.29;45.59;101698.44;5010636;28;20531;-72
2022/08/12 06:12:32;;;;;;;6.50;3.77;;;21.90;6.80;;;22.48;44.69;101701.63;5007404;28;20447;-73
2022/08/12 06:15:01;;;;;;;5.00;3.80;;;22.10;6.30;;;22.59;44.32;101697.88;5012815;28;20445;-73
2022/08/12 06:17:30;;;;;;;7.37;4.70;;;22.20;5.70;;;22.78;44.52;101701.09;5008356;28;20784;-72
2022/08/12 06:19:59;;;;;;;7.60;4.17;;;22.30;5.80;;;22.87;44.50;101694.00;5011540;28;20444;-73
2022/08/12 06:22:49;;;;;;;7.73;4.00;;;22.50;5.60;;;23.01;44.22;101695.19;5006959;28;20482;-74
2022/08/12 06:25:26;;;;;;;6.73;4.40;;;22.60;5.40;;;23.08;43.96;101694.97;5020884;28;20487;-73
2022/08/12 06:27:59;;;;;;;4.57;3.37;;;22.70;4.90;;;23.27;43.27;101698.97;5011198;28;20438;-72
2022/08/12 06:30:36;;;;;;;5.97;3.73;;;22.80;4.40;;;23.46;42.65;101702.13;5009793;28;20441;-73
2022/08/12 06:33:08;;;;;;;7.20;3.60;;;23.00;3.80;;;23.66;42.99;101697.53;5010914;28;20451;-73
2022/08/12 06:35:57;;;;;;;11.93;4.30;;;23.20;4.10;;;23.58;42.50;101695.28;5007555;28;20430;-74
2022/08/12 06:38:29;;;;;;;9.30;4.00;;;23.30;3.30;;;23.72;42.19;101706.69;5011538;28;20436;-72
2022/08/12 06:43:50;;;;;;;3.87;2.87;;;23.50;2.90;;;24.06;41.02;101702.34;5010184;28;20782;-74
2022/08/12 06:46:37;;;;;;;4.73;2.53;;;23.70;1.80;;;24.07;40.72;101694.91;5014750;28;20403;-74
2022/08/12 06:49:12;;;;;;;2.87;2.30;;;23.80;1.00;;;24.13;40.69;101696.56;5011355;28;20461;-73
2022/08/12 06:51:40;;;;;;;5.53;2.83;;;23.90;1.00;;;24.27;40.15;101697.75;5010894;28;20471;-71
2022/08/12 06:54:23;;;;;;;4.43;3.33;;;23.90;1.00;;;24.50;40.18;101690.84;5009597;28;20486;-73
2022/08/12 06:57:00;;;;;;;3.00;2.13;;;24.10;1.00;;;24.76;39.26;101700.81;5006291;28;20502;-73
2022/08/12 06:59:50;;;;;;;4.20;2.70;;;24.30;1.00;;;24.84;39.24;101691.13;5007334;28;20441;-72
2022/08/12 07:02:21;;;;;;;3.03;2.60;;;24.50;1.00;;;25.03;38.73;101689.47;5005485;28;20492;-72
2022/08/12 07:04:51;;;;;;;7.23;2.50;;;24.60;1.00;;;25.07;38.48;101688.66;5010928;28;20437;-73
2022/08/12 07:07:20;;;;;;;5.67;2.23;;;24.80;1.00;;;25.14;38.41;101696.66;5016051;28;20916;-72
2022/08/12 07:09:50;;;;;;;4.80;2.83;;;24.80;1.00;;;25.11;38.22;101688.91;5022218;28;20447;-73
2022/08/12 07:12:36;;;;;;;3.17;2.87;;;24.90;1.00;;;25.25;38.06;101689.97;5012673;28;20499;-73
2022/08/12 07:15:08;;;;;;;3.20;2.80;;;24.90;1.00;;;25.43;37.77;101696.84;5012100;28;20452;-73
2022/08/12 07:17:36;;;;;;;3.80;2.10;;;25.10;1.00;;;25.45;37.29;101692.69;5010902;28;20441;-73
2022/08/12 07:20:10;;;;;;;2.70;2.27;;;25.10;1.00;;;25.61;37.25;101695.44;5013329;28;20477;-73
2022/08/12 07:23:00;;;;;;;2.97;2.60;;;25.20;1.00;;;25.76;37.05;101693.41;5007213;28;20531;-73
2022/08/12 07:25:33;;;;;;;2.83;1.80;;;25.40;1.00;;;25.91;36.54;101696.13;5010727;28;20528;-73
2022/08/12 07:28:13;;;;;;;2.37;2.07;;;25.50;1.00;;;26.10;35.98;101692.69;5011589;28;20502;-73
2022/08/12 07:30:48;;;;;;;2.67;2.00;;;25.70;1.00;;;26.21;36.31;101692.38;5014673;28;20884;-73
2022/08/12 07:33:21;;;;;;;3.33;2.80;;;25.90;1.00;;;26.31;35.47;101706.19;5025859;28;20451;-72
2022/08/12 07:35:52;;;;;;;2.70;2.13;;;25.90;1.00;;;26.34;35.80;101699.22;5035068;28;20419;-73
2022/08/12 07:38:26;;;;;;;2.90;1.93;;;26.00;1.00;;;26.57;35.42;101703.22;5015356;28;20444;-72
2022/08/12 07:41:03;;;;;;;9.67;2.50;;;26.20;1.00;;;26.48;35.29;101704.97;5025019;28;20451;-73
2022/08/12 07:43:34;;;;;;;4.10;2.17;;;26.10;1.00;;;26.43;35.45;101699.47;5028807;28;20443;-73
2022/08/12 07:46:07;;;;;;;2.17;1.67;;;26.10;1.00;;;26.63;35.26;101702.88;5029963;28;20468;-71
2022/08/12 07:48:41;;;;;;;6.03;1.70;;;26.30;1.00;;;26.57;35.36;101695.72;5028609;28;20511;-72
2022/08/12 07:51:10;;;;;;;4.17;2.10;;;26.40;1.00;;;26.56;34.90;101696.00;5014821;28;20436;-72
2022/08/12 07:53:56;;;;;;;2.00;1.80;;;26.30;1.00;;;26.50;35.18;101691.59;5019131;28;21033;-72
2022/08/12 07:56:32;;;;;;;2.73;1.70;;;26.30;1.00;;;26.64;34.50;101696.22;5006968;28;20433;-72
2022/08/12 07:59:01;;;;;;;3.13;1.77;;;26.30;1.00;;;26.81;34.60;101698.59;5011768;28;20458;-73
2022/08/12 08:01:32;;;;;;;2.17;1.50;;;26.50;1.00;;;26.52;34.85;101695.78;5010891;28;20459;-73
2022/08/12 08:06:49;;;;;;;2.10;1.80;;;26.40;1.00;;;26.96;34.11;101695.69;5013445;28;20424;-74
2022/08/12 08:09:22;;;;;;;7.33;1.83;;;26.50;1.00;;;27.08;34.05;101703.63;5011148;28;20441;-72
2022/08/12 08:14:47;;;;;;;2.67;1.80;;;26.70;1.00;;;27.17;34.09;101693.50;5015021;28;20488;-73
2022/08/12 08:17:19;;;;;;;3.13;2.07;;;26.80;1.00;;;27.27;33.81;101689.81;5017355;28;20491;-72
2022/08/12 08:19:51;;;;;;;2.63;1.63;;;26.80;1.00;;;27.40;33.51;101683.56;5019394;28;20479;-72
2022/08/12 08:22:33;;;;;;;2.20;1.40;;;27.00;1.00;;;27.34;33.44;101690.28;5014491;28;20530;-72
2022/08/12 08:25:12;;;;;;;5.90;2.03;;;27.00;1.00;;;27.41;33.56;101691.59;5011309;28;20510;-73
2022/08/12 08:28:04;;;;;;;3.37;2.30;;;27.10;1.00;;;27.32;33.64;101686.97;5011701;28;20526;-73
2022/08/12 08:30:34;;;;;;;1.97;1.77;;;27.00;1.00;;;27.17;33.75;101691.56;5010436;28;21133;-73
2022/08/12 08:33:04;;;;;;;2.20;1.57;;;26.90;1.00;;;27.28;34.27;101680.34;5010596;28;20481;-73
2022/08/12 08:35:53;;;;;;;1.90;1.70;;;26.90;1.00;;;27.60;33.46;101684.16;5011239;28;20440;-72
2022/08/12 08:38:22;;;;;;;3.50;1.63;;;27.20;1.00;;;27.50;33.40;101683.44;5012791;28;20479;-73
2022/08/12 08:44:10;;;;;;;2.87;1.97;;;27.10;1.00;;;27.33;32.94;101672.78;5013640;28;20981;-73
2022/08/12 08:46:43;;;;;;;2.00;1.80;;;27.10;1.00;;;27.46;33.58;101690.69;5014413;28;20472;-73
2022/08/12 08:49:14;;;;;;;2.77;1.60;;;27.10;1.00;;;27.60;32.43;101689.72;4997343;28;20463;-73
2022/08/12 08:51:45;;;;;;;2.90;1.57;;;27.20;1.00;;;27.56;32.13;101685.03;5009065;28;20457;-72
2022/08/12 08:54:14;;;;;;;2.90;1.93;;;27.20;1.00;;;27.71;31.98;101678.47;4997107;28;20518;-73
2022/08/12 08:56:45;;;;;;;3.73;1.90;;;27.30;1.00;;;27.82;31.57;101678.03;5014481;28;20512;-73
2022/08/12 08:59:14;;;;;;;2.73;2.03;;;27.40;1.00;;;27.73;31.77;101676.22;5012615;28;20410;-72
2022/08/12 09:01:43;;;;;;;5.13;1.73;;;27.40;1.00;;;28.01;31.53;101683.63;5011031;28;20468;-72
2022/08/12 09:04:15;;;;;;;2.40;1.50;;;27.50;1.00;;;27.88;31.68;101679.63;5012419;28;20441;-72
2022/08/12 09:07:04;;;;;;;2.40;1.90;;;27.60;1.00;;;27.72;31.76;101685.69;5011928;28;20487;-72
2022/08/12 09:09:46;;;;;;;2.13;1.60;;;27.50;1.00;;;27.72;31.74;101671.78;5006084;28;20443;-73
2022/08/12 09:15:24;;;;;;;2.00;1.50;;;27.20;1.00;;;27.49;31.59;101681.81;5009836;28;20852;-72
2022/08/12 09:18:05;;;;;;;3.07;1.67;;;27.10;1.00;;;27.50;32.03;101677.88;5011953;28;20854;-72
2022/08/12 09:20:40;;;;;;;2.43;1.87;;;27.20;1.00;;;27.43;31.63;101677.41;4993909;28;20452;-73
2022/08/12 09:23:29;;;;;;;3.70;1.83;;;27.20;1.00;;;27.64;32.10;101674.09;5011046;28;20449;-72
2022/08/12 09:26:21;;;;;;;3.90;1.43;;;27.30;1.00;;;27.60;31.93;101674.97;5008792;28;20960;-73
2022/08/12 09:28:57;;;;;;;2.03;1.47;;;27.40;1.00;;;27.88;31.36;101674.06;5012485;28;20444;-73
2022/08/12 09:31:29;;;;;;;1.97;1.47;;;27.50;1.00;;;28.19;30.99;101665.28;5011454;28;20787;-74
2022/08/12 09:34:18;;;;;;;2.00;1.43;;;27.70;1.00;;;28.31;30.45;101665.66;5008684;28;20567;-73
2022/08/12 09:37:02;;;;;;;3.43;1.70;;;27.90;1.00;;;28.45;30.42;101667.38;5011101;28;20476;-71
2022/08/12 09:39:48;;;;;;;2.83;2.10;;;28.00;1.00;;;28.14;30.67;101670.94;5012243;28;20802;-73
2022/08/12 09:45:47;;;;;;;2.63;2.30;;;27.90;1.00;;;28.45;30.33;101655.41;5012093;28;20458;-73
2022/08/12 09:48:36;;;;;;;3.23;1.63;;;28.00;1.00;;;28.49;29.77;101662.03;5012521;28;20464;-73
2022/08/12 09:51:07;;;;;;;5.03;2.17;;;28.00;1.00;;;28.37;29.72;101647.75;5016821;28;20440;-73
2022/08/12 09:53:48;;;;;;;2.80;1.30;;;28.10;1.00;;;28.30;30.37;101647.31;5023705;28;20436;-73
2022/08/12 09:56:37;;;;;;;2.17;1.50;;;28.00;1.00;;;28.50;29.58;101652.53;5011969;28;20662;-74
2022/08/12 09:59:26;;;;;;;3.30;1.70;;;28.00;1.00;;;28.44;30.05;101634.25;5022660;28;20443;-73
2022/08/12 10:02:15;;;;;;;2.00;1.30;;;28.00;1.00;;;28.31;30.02;101632.28;5019107;28;20843;-73
2022/08/12 10:05:05;;;;;;;2.60;1.57;;;28.10;1.00;;;28.20;30.18;101641.91;5008676;28;20547;-73
2022/08/12 10:07:43;;;;;;;3.53;1.63;;;28.00;1.00;;;28.18;30.17;101633.84;5015827;28;20453;-72
2022/08/12 10:10:14;;;;;;;3.50;1.90;;;27.90;1.00;;;28.38;29.83;101633.53;5016322;28;20440;-73
2022/08/12 10:16:04;;;;;;;2.43;1.70;;;28.10;1.00;;;28.52;29.38;101628.00;5009970;28;20935;-72
2022/08/12 10:18:35;;;;;;;5.13;1.57;;;28.10;1.00;;;28.48;29.58;101619.44;5011360;28;20445;-72
2022/08/12 10:21:21;;;;;;;2.17;1.20;;;28.20;1.00;;;28.42;29.68;101611.47;5002999;28;20520;-73
2022/08/12 10:23:52;;;;;;;2.40;1.60;;;28.20;1.00;;;28.54;29.85;101614.59;5006678;28;20705;-74
2022/08/12 10:32:22;;;;;;;2.00;1.70;;;28.20;1.00;;;28.33;29.03;101607.72;5008573;28;20828;-73
2022/08/12 10:35:15;;;;;;;3.27;1.80;;;28.10;1.00;;;28.44;29.58;101609.22;5014495;28;20468;-73
2022/08/12 10:37:45;;;;;;;5.70;2.10;;;28.10;1.00;;;28.64;28.64;101591.31;5008753;28;20523;-73
2022/08/12 10:43:39;;;;;;;2.17;1.50;;;28.20;1.00;;;28.82;28.94;101602.41;5006990;28;20437;-72
2022/08/12 10:43:42;;;;;;;5.13;1.57;;;28.40;1.00;;;28.73;28.88;101593.13;5011696;28;20437;-73
2022/08/12 10:46:25;;;;;;;3.10;1.40;;;28.40;1.00;;;28.92;28.46;101596.66;5008988;28;20525;-74
2022/08/12 10:49:00;;;;;;;1.93;1.63;;;28.50;1.00;;;29.26;28.31;101592.63;5009356;28;20469;-73
2022/08/12 10:51:50;;;;;;;2.00;1.53;;;28.80;1.00;;;29.43;27.93;101592.84;5010746;28;20457;-75
2022/08/12 10:54:40;;;;;;;2.17;1.47;;;29.00;1.00;;;29.18;28.36;101585.00;5011382;28;20473;-74
2022/08/12 10:57:10;;;;;;;1.50;1.03;;;28.90;1.00;;;29.28;28.04;101579.22;5011162;28;20448;-73
2022/08/12 10:59:47;;;;;;;4.30;1.70;;;28.90;1.00;;;29.27;28.42;101578.38;5011124;28;20801;-73
2022/08/12 11:02:36;;;;;;;4.63;1.80;;;28.90;1.00;;;29.33;28.05;101584.72;5045496;22;20474;-73
2022/08/12 11:05:25;;;;;;;3.87;1.77;;;28.90;1.00;;;29.54;27.99;101585.06;5032410;28;20941;-72
2022/08/12 11:08:16;;;;;;;2.70;1.93;;;29.10;1.00;;;29.32;28.48;101577.47;5034198;28;20436;-71
2022/08/12 11:11:07;;;;;;;2.50;1.80;;;29.00;1.00;;;29.10;28.19;101588.50;5028835;28;20547;-71
2022/08/12 11:13:46;;;;;;;3.33;2.00;;;28.80;1.00;;;28.99;28.38;101581.50;5019560;28;20930;-72
2022/08/12 11:16:18;;;;;;;5.23;1.93;;;28.80;1.00;;;29.05;28.09;101577.47;5012747;28;20969;-72
2022/08/12 11:18:51;;;;;;;3.30;1.70;;;28.70;1.00;;;29.14;28.35;101579.22;5015401;28;20466;-71
2022/08/12 11:21:24;;;;;;;3.57;1.57;;;28.70;1.00;;;29.21;28.38;101579.63;5019468;28;20972;-71
2022/08/12 11:24:13;;;;;;;5.60;1.93;;;28.80;1.00;;;28.97;28.66;101578.19;5008611;28;20461;-72
2022/08/12 11:27:02;;;;;;;3.87;1.87;;;28.70;1.00;;;28.90;28.16;101571.03;5015101;28;21026;-71
2022/08/12 11:29:38;;;;;;;2.30;1.50;;;28.50;1.00;;;28.67;28.41;101573.97;5019378;28;20527;-73
2022/08/12 11:32:29;;;;;;;4.57;1.53;;;28.40;1.00;;;28.69;29.10;101572.56;5020707;28;20503;-72
2022/08/12 11:35:08;;;;;;;1.73;1.40;;;28.30;1.00;;;28.99;28.98;101571.16;5017762;28;20480;-70
2022/08/12 11:37:40;;;;;;;3.37;1.80;;;28.50;1.00;;;29.07;28.65;101566.81;5014449;28;20440;-73
2022/08/12 11:40:27;;;;;;;4.33;1.70;;;28.50;1.00;;;29.23;28.22;101559.81;5019917;28;20441;-71
2022/08/12 11:42:57;;;;;;;2.10;1.60;;;28.60;1.00;;;29.53;28.28;101553.56;5016782;28;20500;-72
2022/08/12 11:45:46;;;;;;;3.20;2.00;;;28.90;1.00;;;29.16;28.75;101542.66;5020342;28;20457;-71
2022/08/12 11:48:22;;;;;;;2.80;2.53;;;28.80;1.00;;;29.16;28.63;101549.06;5015755;28;20941;-71
2022/08/12 11:50:55;;;;;;;2.77;1.80;;;28.80;1.00;;;28.90;29.09;101562.69;5014118;28;20446;-72
2022/08/12 11:53:24;;;;;;;1.90;1.70;;;28.60;1.00;;;28.67;29.13;101552.53;5019651;28;20490;-72
2022/08/12 11:56:13;;;;;;;2.20;1.83;;;28.40;1.00;;;28.59;29.14;101553.25;5023483;28;20484;-70
2022/08/12 11:58:42;;;;;;;3.40;1.77;;;28.20;1.00;;;28.59;29.42;101549.63;5017848;28;20461;-73
2022/08/12 12:01:31;;;;;;;3.77;2.40;;;28.20;1.00;;;28.81;29.50;101558.97;5014899;28;20447;-73
2022/08/12 12:04:21;;;;;;;2.20;1.80;;;28.30;1.00;;;28.83;29.11;101551.16;5017339;28;20512;-72
2022/08/12 12:06:58;;;;;;;2.40;2.00;;;28.30;1.00;;;28.93;29.08;101550.94;5015096;28;21207;-72
2022/08/12 12:09:38;;;;;;;2.53;1.77;;;28.40;1.00;;;28.64;29.82;101542.03;5018861;28;20436;-72
2022/08/12 12:12:23;;;;;;;3.53;2.07;;;28.40;1.00;;;28.50;30.24;101541.19;5010758;28;20514;-71
2022/08/12 12:14:52;;;;;;;1.87;1.67;;;28.20;1.00;;;28.37;30.09;101536.41;5013963;28;20479;-72
2022/08/12 12:17:24;;;;;;;2.13;1.93;;;28.10;1.00;;;28.46;30.24;101537.34;5011099;28;20465;-72
2022/08/12 12:19:54;;;;;;;4.10;1.80;;;28.10;1.00;;;29.03;29.77;101535.97;5017415;28;20455;-72
2022/08/12 12:22:23;;;;;;;3.00;2.20;;;28.40;1.00;;;29.21;29.49;101539.78;5016784;28;20440;-72
2022/08/12 12:24:59;;;;;;;6.40;2.00;;;28.60;1.00;;;29.23;29.31;101543.09;5020134;28;20437;-72
2022/08/12 12:27:46;;;;;;;8.90;1.80;;;28.70;1.00;;;28.99;28.92;101543.31;5022183;28;20444;-71
2022/08/12 12:30:33;;;;;;;2.70;1.60;;;28.70;1.00;;;28.97;28.95;101533.59;5021722;28;20441;-71
2022/08/12 12:33:02;;;;;;;5.63;2.20;;;28.60;1.00;;;29.03;29.31;101524.00;5026712;28;20465;-70
2022/08/12 12:35:35;;;;;;;1.90;1.13;;;28.60;1.00;;;28.97;29.10;101516.88;5022118;28;20466;-72
2022/08/12 12:38:24;;;;;;;1.63;1.37;;;28.50;1.00;;;28.84;28.92;101522.16;5030029;28;20447;-71
2022/08/12 12:40:53;;;;;;;3.30;2.10;;;28.50;1.00;;;28.58;29.33;101515.41;5008208;28;20456;-73
2022/08/12 12:43:22;;;;;;;6.77;1.60;;;28.30;1.00;;;28.52;29.23;101514.66;5014906;28;20460;-72
2022/08/12 12:46:05;;;;;;;1.87;1.57;;;28.30;1.00;;;28.51;29.81;101509.44;5011826;28;20467;-71
2022/08/12 12:48:36;;;;;;;3.30;1.70;;;28.20;1.00;;;28.57;29.60;101501.78;5018732;28;20445;-71